Plainville, New York
Current Conditions -  °F | °C
As of 12:54 AM on Tuesday 21 Oct 2014 (Local Time) from KFZY Reporting Station
Light Rain Light Rain  
Wind Chill: 49°   Ceiling: 3600
Heat Index: 49°   Visibility: 10mi
Dew Point: 45°   Wind: 3mph
Humidity: 86%   Direction: 130°SE
Pressure: 29.86"   Gusts: NA
Location:  43.16°N, 76.45°W
Report Text: KFZY 210454Z AUTO 13003KT 10SM -RA OVC036 09/07 A2986 RMK AO2 RAE19B53 SLP111 P0000 T00940072 401170022
Loading
Personal Weather Stations






























Interactive Weather Map
Tropical Storm Tracking
New forecast layout! Learn more

10-Day Weather Forecast

Advertisements
Track Severe Weather on mobile